Time;durP1;ratioP1;P1;durP2;ratioP2;P2;SDS_P1;SDS_P2;PMS_P1;PMS_P2;Temp;Humidity;BMP_temperature;BMP_pressure;BME280_temperature;BME280_humidity;BME280_pressure;Samples;Min_cycle;Max_cycle;Signal;HPM_P1;HPM_P2
2023/06/24 19:13:30;;;;;;;12.63;11.43;;;;;;;26.58;51.25;95123.28;6133257;27;109362;-58
2023/06/24 19:16:34;;;;;;;11.43;10.27;;;;;;;26.57;51.01;95124.38;6168847;28;109281;-57
2023/06/24 19:19:37;;;;;;;14.00;10.23;;;;;;;26.51;50.21;95117.66;6211607;27;109053;-58
2023/06/24 19:22:40;;;;;;;12.20;11.00;;;;;;;26.55;50.52;95116.69;6144743;27;108921;-59
2023/06/24 19:25:43;;;;;;;13.47;12.20;;;;;;;26.51;50.66;95114.97;6079162;28;155008;-59
2023/06/24 19:28:48;;;;;;;13.07;11.87;;;;;;;26.45;50.54;95111.72;6206760;28;108890;-59
2023/06/24 19:31:51;;;;;;;14.10;11.27;;;;;;;26.36;50.60;95111.00;6201948;28;110011;-60
2023/06/24 19:34:54;;;;;;;15.33;12.50;;;;;;;26.35;51.00;95103.28;6199685;28;109248;-59
2023/06/24 19:37:59;;;;;;;17.17;12.60;;;;;;;26.24;50.95;95100.25;6206998;28;108687;-59
2023/06/24 19:41:02;;;;;;;13.57;12.17;;;;;;;26.24;51.37;95111.78;6207111;28;110543;-64
2023/06/24 19:44:08;;;;;;;15.33;11.13;;;;;;;26.20;51.49;95108.16;6195271;28;110144;-59
2023/06/24 19:47:11;;;;;;;15.53;10.70;;;;;;;26.18;50.68;95096.97;6206601;28;109103;-59
2023/06/24 19:50:15;;;;;;;9.77;8.77;;;;;;;26.21;50.64;95093.66;6206718;28;109312;-58
2023/06/24 19:53:18;;;;;;;10.63;9.53;;;;;;;26.20;50.75;95085.91;6204229;28;109015;-59
2023/06/24 19:56:21;;;;;;;9.60;8.70;;;;;;;26.19;50.46;95087.81;6197010;28;109124;-60
2023/06/24 19:59:26;;;;;;;10.20;9.20;;;;;;;26.26;50.93;95090.75;6207369;28;108953;-59
2023/06/24 20:02:29;;;;;;;12.97;9.70;;;;;;;26.25;50.78;95099.94;6197811;28;108949;-61
2023/06/24 20:05:32;;;;;;;12.43;11.33;;;;;;;26.20;51.15;95097.44;6171700;28;109089;-61
2023/06/24 20:08:36;;;;;;;10.93;9.90;;;;;;;26.24;50.71;95102.94;6170940;28;109267;-60
2023/06/24 20:11:39;;;;;;;10.50;9.60;;;;;;;26.25;50.86;95104.50;6163747;28;109065;-60
2023/06/24 20:14:43;;;;;;;11.90;10.80;;;;;;;26.23;51.26;95114.78;6167565;28;108823;-60
2023/06/24 20:17:46;;;;;;;12.43;11.03;;;;;;;26.23;51.06;95123.63;6171918;28;110905;-62
2023/06/24 20:20:49;;;;;;;11.00;9.90;;;;;;;26.22;51.41;95130.09;6180930;28;112114;-64
2023/06/24 20:23:52;;;;;;;11.60;10.40;;;;;;;26.22;51.09;95126.63;6165590;28;109223;-60
2023/06/24 20:26:56;;;;;;;12.70;10.77;;;;;;;26.15;51.71;95124.47;6147575;28;109436;-59
2023/06/24 20:30:00;;;;;;;12.10;10.77;;;;;;;26.14;51.08;95119.44;6151478;28;109162;-61
2023/06/24 20:33:03;;;;;;;11.33;10.23;;;;;;;26.18;51.43;95120.34;6158868;28;109632;-60
2023/06/24 20:36:07;;;;;;;12.43;10.23;;;;;;;26.21;50.99;95128.53;6163259;28;109027;-60
2023/06/24 20:39:10;;;;;;;13.93;11.43;;;;;;;26.18;51.18;95129.19;6163666;28;109847;-60
2023/06/24 20:42:14;;;;;;;12.37;11.07;;;;;;;26.19;51.65;95143.38;6136181;28;109455;-61
2023/06/24 20:45:19;;;;;;;13.63;10.97;;;;;;;26.17;51.44;95157.13;6148795;28;108981;-60
2023/06/24 20:48:23;;;;;;;11.93;10.60;;;;;;;26.20;51.64;95159.13;6155811;28;109521;-60
2023/06/24 20:51:26;;;;;;;11.80;9.97;;;;;;;26.19;51.58;95154.88;6151355;28;109352;-60
2023/06/24 20:54:30;;;;;;;10.33;9.40;;;;;;;26.17;51.74;95156.34;6142089;28;109595;-60
2023/06/24 20:57:33;;;;;;;11.17;10.17;;;;;;;26.18;51.16;95163.25;6163312;28;110339;-61
2023/06/24 21:00:38;;;;;;;11.63;10.53;;;;;;;26.18;51.44;95168.63;6149305;28;108809;-61
2023/06/24 21:03:42;;;;;;;11.30;10.10;;;;;;;26.19;51.63;95165.63;6138926;28;109063;-61
2023/06/24 21:06:45;;;;;;;10.53;9.43;;;;;;;26.14;51.61;95162.38;6148725;28;109001;-62
2023/06/24 21:09:48;;;;;;;12.97;9.90;;;;;;;26.11;51.19;95157.66;6163025;28;108692;-61
2023/06/24 21:12:51;;;;;;;12.27;9.53;;;;;;;26.06;51.34;95164.00;6160111;28;109467;-61
2023/06/24 21:16:02;;;;;;;11.90;10.77;;;;;;;26.05;51.00;95189.28;6143066;28;109294;-61
2023/06/24 21:19:05;;;;;;;11.80;10.70;;;;;;;26.03;51.28;95183.41;6160149;28;109231;-62
2023/06/24 21:22:08;;;;;;;13.17;11.93;;;;;;;26.02;51.59;95187.22;6151375;28;109105;-62
2023/06/24 21:25:11;;;;;;;12.50;11.33;;;;;;;26.00;51.38;95176.03;6160371;28;109387;-61
2023/06/24 21:28:14;;;;;;;13.27;11.93;;;;;;;26.01;51.99;95191.00;6135569;28;108960;-62
2023/06/24 21:31:19;;;;;;;12.07;10.87;;;;;;;26.00;51.85;95205.53;6148973;28;109915;-62
2023/06/24 21:34:22;;;;;;;14.17;12.90;;;;;;;26.00;51.90;95221.63;6156173;28;108969;-61
2023/06/24 21:37:25;;;;;;;14.10;12.73;;;;;;;25.96;52.30;95216.09;6144656;28;109930;-61
2023/06/24 21:40:28;;;;;;;14.60;13.30;;;;;;;25.98;51.79;95223.81;6159852;28;109170;-62
2023/06/24 21:43:33;;;;;;;13.70;12.50;;;;;;;25.97;52.11;95222.25;6157605;28;109041;-61
2023/06/24 21:46:38;;;;;;;13.90;12.63;;;;;;;25.96;52.83;95223.38;6141744;28;109228;-62
2023/06/24 21:49:41;;;;;;;13.43;12.23;;;;;;;25.95;53.05;95225.25;6151047;28;109997;-62
2023/06/24 21:52:44;;;;;;;14.50;12.97;;;;;;;25.94;52.91;95220.22;6162924;28;109944;-62
2023/06/24 21:55:47;;;;;;;15.27;13.80;;;;;;;25.94;52.92;95217.53;6160100;28;109880;-61
2023/06/24 21:58:50;;;;;;;14.47;13.10;;;;;;;25.91;53.22;95215.53;6149147;28;110082;-61
2023/06/24 22:01:54;;;;;;;12.87;11.57;;;;;;;25.86;53.89;95223.72;6135353;28;109571;-62
2023/06/24 22:04:58;;;;;;;11.00;10.00;;;;;;;25.86;53.73;95215.69;6145976;28;109676;-62
2023/06/24 22:08:01;;;;;;;11.10;10.10;;;;;;;25.81;53.68;95218.56;6141382;28;109852;-61
2023/06/24 22:11:04;;;;;;;11.03;9.73;;;;;;;25.78;53.54;95236.09;6133188;28;108907;-61
2023/06/24 22:14:07;;;;;;;11.27;9.90;;;;;;;25.73;53.81;95243.56;6150807;28;110488;-61
2023/06/24 22:17:11;;;;;;;10.53;9.53;;;;;;;25.72;54.05;95250.81;6139911;28;109756;-59
2023/06/24 22:20:14;;;;;;;11.07;10.07;;;;;;;25.74;53.92;95253.16;6144013;28;109036;-60
2023/06/24 22:23:18;;;;;;;9.90;8.80;;;;;;;25.76;53.48;95237.53;6130684;28;110262;-59
2023/06/24 22:26:21;;;;;;;10.03;9.03;;;;;;;25.73;53.58;95228.25;6149928;28;110264;-59
2023/06/24 22:29:24;;;;;;;11.40;8.57;;;;;;;25.72;54.05;95226.69;6162367;28;110278;-59
2023/06/24 22:32:28;;;;;;;10.00;8.10;;;;;;;25.70;53.76;95228.88;6148941;28;108995;-60
2023/06/24 22:35:31;;;;;;;9.03;8.10;;;;;;;25.72;53.79;95242.75;6150225;28;108787;-61
2023/06/24 22:38:35;;;;;;;9.90;8.97;;;;;;;25.76;53.41;95245.56;6163100;28;109959;-59
2023/06/24 22:41:38;;;;;;;11.17;10.13;;;;;;;25.75;53.96;95242.13;6148692;28;108998;-59
2023/06/24 22:44:41;;;;;;;9.00;8.20;;;;;;;25.77;53.84;95239.09;6139850;28;108962;-60
2023/06/24 22:47:45;;;;;;;10.17;8.33;;;;;;;25.78;53.91;95232.63;6156411;28;109921;-64
2023/06/24 22:50:49;;;;;;;10.13;9.23;;;;;;;25.80;53.70;95233.88;6161264;28;110004;-59
2023/06/24 22:53:52;;;;;;;10.97;8.83;;;;;;;25.80;53.59;95217.78;6144435;28;108592;-58
2023/06/24 22:56:55;;;;;;;10.13;9.23;;;;;;;25.81;53.25;95215.88;6128755;28;109260;-59
2023/06/24 22:59:58;;;;;;;11.90;10.13;;;;;;;25.80;53.86;95208.97;6157977;28;109158;-59
2023/06/24 23:03:03;;;;;;;10.73;9.67;;;;;;;25.80;54.07;95206.28;6154256;28;109065;-58
2023/06/24 23:06:07;;;;;;;9.20;8.40;;;;;;;25.78;54.07;95203.94;6154506;28;109275;-59
2023/06/24 23:09:12;;;;;;;10.70;9.70;;;;;;;25.77;53.67;95201.56;6151249;28;111447;-60
2023/06/24 23:12:15;;;;;;;10.43;9.43;;;;;;;25.77;53.98;95188.94;6162045;28;108939;-60
2023/06/24 23:15:19;;;;;;;10.77;9.63;;;;;;;25.76;53.88;95175.88;6162722;28;110420;-60
2023/06/24 23:18:24;;;;;;;10.70;9.70;;;;;;;25.76;54.44;95173.19;6162225;28;109936;-60
2023/06/24 23:21:28;;;;;;;10.47;9.57;;;;;;;25.76;54.79;95170.53;6149841;28;109326;-60
2023/06/24 23:24:31;;;;;;;9.97;9.00;;;;;;;25.75;54.64;95160.91;6162751;28;108822;-60
2023/06/24 23:27:36;;;;;;;10.90;9.73;;;;;;;25.75;54.32;95153.66;6161573;28;109203;-59
2023/06/24 23:30:40;;;;;;;8.47;7.57;;;;;;;25.74;54.65;95156.66;6157070;28;109257;-62
2023/06/24 23:33:46;;;;;;;12.03;8.30;;;;;;;25.74;54.20;95151.28;6156151;28;109000;-59
2023/06/24 23:36:49;;;;;;;11.07;10.00;;;;;;;25.73;54.43;95142.47;6155567;28;108908;-58
2023/06/24 23:39:53;;;;;;;9.83;8.83;;;;;;;25.73;54.37;95131.75;6140420;28;109918;-59
2023/06/24 23:42:56;;;;;;;11.00;9.90;;;;;;;25.73;54.64;95125.59;6133056;28;109903;-57
2023/06/24 23:46:01;;;;;;;10.17;9.27;;;;;;;25.72;54.94;95124.81;6152798;28;110278;-57
2023/06/24 23:49:06;;;;;;;10.00;9.00;;;;;;;25.69;54.94;95131.59;6155189;28;109061;-58
2023/06/24 23:52:12;;;;;;;10.60;9.70;;;;;;;25.71;54.84;95136.66;6161303;28;109165;-58
2023/06/24 23:55:15;;;;;;;8.00;7.30;;;;;;;25.65;55.06;95137.94;6150179;28;109011;-58
2023/06/24 23:58:18;;;;;;;7.57;6.70;;;;;;;25.60;55.11;95138.94;6162944;28;108723;-57
